createdAt,value
2023-05-02T00:01:06.272Z,1.17
2023-05-02T00:03:35.837Z,1.20
2023-05-02T00:06:06.828Z,1.00
2023-05-02T00:08:36.078Z,1.20
2023-05-02T00:11:05.522Z,1.17
2023-05-02T00:13:34.644Z,1.20
2023-05-02T00:16:03.895Z,1.08
2023-05-02T00:18:33.099Z,1.20
2023-05-02T00:21:02.305Z,1.05
2023-05-02T00:23:33.010Z,1.20
2023-05-02T00:26:02.186Z,1.27
2023-05-02T00:28:31.354Z,1.20
2023-05-02T00:31:00.650Z,1.20
2023-05-02T00:33:29.942Z,0.95
2023-05-02T00:35:59.260Z,1.13
2023-05-02T00:38:28.387Z,1.77
2023-05-02T00:40:59.087Z,1.40
2023-05-02T00:43:32.333Z,0.95
2023-05-02T00:46:01.650Z,1.48
2023-05-02T00:48:30.861Z,1.40
2023-05-02T00:51:00.790Z,1.20
2023-05-02T00:53:29.953Z,1.17
2023-05-02T00:56:01.144Z,0.80
2023-05-02T00:58:32.104Z,1.10
2023-05-02T01:01:13.589Z,1.15
2023-05-02T01:03:52.243Z,1.10
2023-05-02T01:06:34.436Z,1.00
2023-05-02T01:09:22.030Z,1.20
2023-05-02T01:12:04.588Z,1.20
2023-05-02T01:14:42.604Z,1.27
2023-05-02T01:17:15.346Z,1.20
2023-05-02T01:19:49.547Z,1.10
2023-05-02T01:22:21.203Z,1.20
2023-05-02T01:24:56.201Z,1.20
2023-05-02T01:27:36.935Z,1.20
2023-05-02T01:30:09.708Z,1.10
2023-05-02T01:32:41.568Z,1.00
2023-05-02T01:35:12.583Z,1.10
2023-05-02T01:37:42.499Z,1.13
2023-05-02T01:40:13.486Z,1.20
2023-05-02T01:42:43.845Z,1.10
2023-05-02T01:45:15.983Z,1.20
2023-05-02T01:47:46.418Z,1.00
2023-05-02T01:50:20.483Z,1.23
2023-05-02T01:52:52.877Z,1.10
2023-05-02T01:55:22.898Z,1.15
2023-05-02T01:57:54.003Z,1.02
2023-05-02T02:00:26.275Z,0.90
2023-05-02T02:02:58.458Z,0.90
2023-05-02T02:05:28.423Z,1.00
2023-05-02T02:07:58.785Z,1.27
2023-05-02T02:10:31.210Z,1.08
2023-05-02T02:13:07.793Z,1.02
2023-05-02T02:15:41.468Z,0.88
2023-05-02T02:18:15.060Z,1.23
2023-05-02T02:20:46.611Z,1.10
2023-05-02T02:23:17.392Z,1.20
2023-05-02T02:25:47.638Z,1.10
2023-05-02T02:28:18.088Z,1.13
2023-05-02T02:30:48.777Z,1.10
2023-05-02T02:33:18.001Z,1.00
2023-05-02T02:35:55.149Z,0.95
2023-05-02T02:38:31.880Z,0.90
2023-05-02T02:41:08.217Z,1.10
2023-05-02T02:43:45.786Z,1.05
2023-05-02T02:46:29.695Z,1.00
2023-05-02T02:49:11.449Z,0.90
2023-05-02T02:51:47.092Z,1.08
2023-05-02T02:54:27.087Z,1.33
2023-05-02T02:57:03.830Z,0.95
2023-05-02T02:59:36.637Z,1.10
2023-05-02T03:02:10.028Z,1.10
2023-05-02T03:04:42.815Z,0.85
2023-05-02T03:07:12.352Z,1.10
2023-05-02T03:09:44.980Z,0.80
2023-05-02T03:12:18.826Z,1.00
2023-05-02T03:14:48.273Z,1.00
2023-05-02T03:17:18.864Z,0.80
2023-05-02T03:19:48.657Z,1.00
2023-05-02T03:22:17.871Z,1.20
2023-05-02T03:24:47.144Z,0.90
2023-05-02T03:27:17.398Z,1.08
2023-05-02T03:29:46.545Z,1.00
2023-05-02T03:32:16.954Z,0.82
2023-05-02T03:34:47.897Z,1.00
2023-05-02T03:37:17.145Z,1.05
2023-05-02T03:39:46.402Z,0.98
2023-05-02T03:42:15.587Z,0.95
2023-05-02T03:44:44.875Z,0.90
2023-05-02T03:47:14.908Z,0.90
2023-05-02T03:49:45.626Z,1.10
2023-05-02T03:52:18.230Z,0.95
2023-05-02T03:54:48.851Z,1.17
2023-05-02T03:57:18.265Z,1.00
2023-05-02T03:59:47.563Z,1.23
2023-05-02T04:02:26.624Z,1.00
2023-05-02T04:04:56.620Z,0.95
2023-05-02T04:07:28.737Z,1.05
2023-05-02T04:10:02.504Z,1.05
2023-05-02T04:12:35.603Z,1.00
2023-05-02T04:15:05.407Z,1.10
2023-05-02T04:17:34.602Z,1.02
2023-05-02T04:20:05.760Z,0.90
2023-05-02T04:22:39.936Z,0.90
2023-05-02T04:25:10.486Z,0.90
2023-05-02T04:27:42.575Z,0.95
2023-05-02T04:30:15.079Z,1.05
2023-05-02T04:32:48.213Z,1.00
2023-05-02T04:35:17.889Z,1.02
2023-05-02T04:37:49.102Z,1.02
2023-05-02T04:40:19.461Z,1.10
2023-05-02T04:42:51.692Z,1.13
2023-05-02T04:45:27.333Z,1.30
2023-05-02T04:47:56.603Z,1.27
2023-05-02T04:50:26.201Z,1.58
2023-05-02T04:52:56.939Z,1.05
2023-05-02T04:55:26.347Z,1.30
2023-05-02T04:57:55.504Z,1.50
2023-05-02T05:00:25.112Z,1.45
2023-05-02T05:02:54.875Z,1.10
2023-05-02T05:05:24.377Z,1.38
2023-05-02T05:07:53.833Z,1.10
2023-05-02T05:10:27.873Z,1.17
2023-05-02T05:12:57.325Z,1.10
2023-05-02T05:15:27.497Z,1.17
2023-05-02T05:18:00.452Z,1.17
2023-05-02T05:20:29.971Z,1.30
2023-05-02T05:23:02.431Z,1.42
2023-05-02T05:25:34.125Z,1.48
2023-05-02T05:28:03.412Z,1.10
2023-05-02T05:30:34.523Z,1.08
2023-05-02T05:33:06.384Z,1.00
2023-05-02T05:35:35.697Z,1.10
2023-05-02T05:38:05.366Z,1.25
2023-05-02T05:40:38.896Z,1.27
2023-05-02T05:43:09.919Z,1.15
2023-05-02T05:45:41.300Z,1.20
2023-05-02T05:48:10.774Z,1.40
2023-05-02T05:50:44.312Z,1.58
2023-05-02T05:53:14.291Z,1.45
2023-05-02T05:55:46.662Z,1.45
2023-05-02T05:58:15.988Z,1.25
2023-05-02T06:00:46.718Z,1.30
2023-05-02T06:03:16.370Z,1.40
2023-05-02T06:05:45.725Z,1.15
2023-05-02T06:08:14.933Z,1.30
2023-05-02T06:10:45.537Z,1.30
2023-05-02T06:13:14.933Z,1.30
2023-05-02T06:15:46.170Z,1.23
2023-05-02T06:18:16.436Z,1.00
2023-05-02T06:20:45.808Z,1.38
2023-05-02T06:23:15.016Z,1.08
2023-05-02T06:25:45.589Z,1.20
2023-05-02T06:28:14.930Z,1.10
2023-05-02T06:30:44.056Z,1.00
2023-05-02T06:33:13.726Z,1.10
2023-05-02T06:35:42.976Z,1.17
2023-05-02T06:38:12.257Z,1.40
2023-05-02T06:40:45.439Z,1.10
2023-05-02T06:43:17.123Z,1.30
2023-05-02T06:45:47.246Z,1.13
2023-05-02T06:48:16.720Z,1.17
2023-05-02T06:50:45.955Z,1.23
2023-05-02T06:53:15.389Z,1.20
2023-05-02T06:55:45.808Z,1.38
2023-05-02T06:58:16.616Z,1.00
2023-05-02T07:00:45.796Z,0.90
2023-05-02T07:03:15.200Z,1.30
2023-05-02T07:05:44.473Z,1.20
2023-05-02T07:08:13.695Z,1.08
2023-05-02T07:10:42.965Z,1.30
2023-05-02T07:13:12.183Z,1.10
2023-05-02T07:15:42.950Z,1.10
2023-05-02T07:18:12.242Z,1.10
2023-05-02T07:20:42.517Z,1.13
2023-05-02T07:23:11.762Z,1.17
2023-05-02T07:25:41.023Z,0.98
2023-05-02T07:28:10.364Z,1.20
2023-05-02T07:30:39.657Z,1.30
2023-05-02T07:33:10.571Z,1.20
2023-05-02T07:35:39.826Z,1.27
2023-05-02T07:38:09.008Z,1.20
2023-05-02T07:40:38.829Z,1.00
2023-05-02T07:43:09.936Z,1.08
2023-05-02T07:45:40.438Z,1.13
2023-05-02T07:48:11.034Z,1.10
2023-05-02T07:50:40.209Z,1.30
2023-05-02T07:53:09.522Z,1.35
2023-05-02T07:55:38.926Z,1.10
2023-05-02T07:58:08.272Z,1.08
2023-05-02T08:00:37.863Z,1.15
2023-05-02T08:03:07.820Z,1.20
2023-05-02T08:05:38.791Z,1.25
2023-05-02T08:08:07.951Z,1.35
2023-05-02T08:10:37.183Z,1.08
2023-05-02T08:13:06.567Z,1.30
2023-05-02T08:15:35.941Z,1.10
2023-05-02T08:18:05.332Z,1.15
2023-05-02T08:20:34.563Z,1.02
2023-05-02T08:23:05.220Z,1.30
2023-05-02T08:25:34.458Z,1.13
2023-05-02T08:28:03.581Z,1.20
2023-05-02T08:30:32.809Z,1.00
2023-05-02T08:33:02.625Z,1.23
2023-05-02T08:35:32.536Z,1.20
2023-05-02T08:38:02.096Z,1.40
2023-05-02T08:40:42.022Z,1.20
2023-05-02T08:43:14.308Z,1.30
2023-05-02T08:45:45.590Z,1.00
2023-05-02T08:48:17.177Z,1.40
2023-05-02T08:50:48.732Z,1.30
2023-05-02T08:53:19.431Z,1.48
2023-05-02T08:55:51.220Z,1.17
2023-05-02T08:58:20.464Z,1.20
2023-05-02T09:00:52.375Z,1.40
2023-05-02T09:03:30.072Z,1.23
2023-05-02T09:06:07.111Z,1.30
2023-05-02T09:08:36.827Z,1.00
2023-05-02T09:11:10.537Z,1.20
2023-05-02T09:13:41.046Z,1.20
2023-05-02T09:16:12.563Z,1.20
2023-05-02T09:18:43.546Z,1.30
2023-05-02T09:21:13.954Z,1.35
2023-05-02T09:23:45.286Z,1.20
2023-05-02T09:26:20.236Z,1.45
2023-05-02T09:28:50.836Z,1.38
2023-05-02T09:33:57.139Z,1.50
2023-05-02T09:36:26.565Z,1.42
2023-05-02T09:39:11.334Z,1.67
2023-05-02T09:41:47.088Z,1.58
2023-05-02T09:44:18.600Z,1.30
2023-05-02T09:46:51.530Z,1.50
2023-05-02T09:49:21.730Z,1.63
2023-05-02T09:51:51.390Z,1.73
2023-05-02T09:54:37.327Z,1.60
2023-05-02T09:57:08.123Z,1.98
2023-05-02T09:59:37.837Z,1.50
2023-05-02T10:02:10.624Z,1.60
2023-05-02T10:04:41.127Z,1.50
2023-05-02T10:07:11.942Z,1.52
2023-05-02T10:09:46.198Z,1.70
2023-05-02T10:12:17.965Z,1.80
2023-05-02T10:14:54.935Z,1.73
2023-05-02T10:17:29.939Z,1.60
2023-05-02T10:20:05.116Z,1.65
2023-05-02T10:22:35.534Z,1.50
2023-05-02T10:25:05.794Z,1.60
2023-05-02T10:27:37.845Z,1.90
2023-05-02T10:30:09.161Z,1.70
2023-05-02T10:32:39.549Z,1.73
2023-05-02T10:35:09.799Z,1.60
2023-05-02T10:37:40.941Z,1.70
2023-05-02T10:40:13.150Z,1.50
2023-05-02T10:42:46.862Z,1.80
2023-05-02T10:45:33.349Z,1.90
2023-05-02T10:48:16.533Z,1.80
2023-05-02T10:50:51.476Z,1.80
2023-05-02T10:53:37.698Z,1.67
2023-05-02T10:56:28.509Z,1.65
2023-05-02T10:59:29.581Z,1.90
2023-05-02T11:01:59.220Z,1.75
2023-05-02T11:04:48.571Z,1.63
2023-05-02T11:07:21.252Z,1.50
2023-05-02T11:09:50.823Z,1.48
2023-05-02T11:12:47.975Z,2.00
2023-05-02T11:15:57.539Z,1.85
2023-05-02T11:18:27.064Z,1.58
2023-05-02T11:21:32.981Z,1.60
2023-05-02T11:24:39.486Z,1.55
2023-05-02T11:27:39.445Z,1.52
2023-05-02T11:30:10.060Z,1.70
2023-05-02T11:33:17.777Z,1.92
2023-05-02T11:35:49.130Z,1.60
2023-05-02T11:38:20.707Z,1.83
2023-05-02T11:40:55.080Z,1.75
2023-05-02T11:43:26.396Z,1.70
2023-05-02T11:45:56.978Z,1.42
2023-05-02T11:48:28.707Z,1.55
2023-05-02T11:51:02.483Z,1.42
2023-05-02T11:53:32.156Z,1.73
2023-05-02T11:56:05.160Z,1.60
2023-05-02T11:58:35.045Z,1.60
2023-05-02T12:01:14.823Z,1.67
2023-05-02T12:03:48.569Z,1.63
2023-05-02T12:06:20.360Z,1.58
2023-05-02T12:08:50.658Z,1.60
2023-05-02T12:11:19.970Z,1.65
2023-05-02T12:13:51.482Z,1.92
2023-05-02T12:16:21.681Z,1.85
2023-05-02T12:18:52.675Z,1.58
2023-05-02T12:21:22.097Z,1.70
2023-05-02T12:23:51.601Z,1.70
2023-05-02T12:26:24.501Z,1.60
2023-05-02T12:28:55.692Z,1.55
2023-05-02T12:31:25.779Z,1.60
2023-05-02T12:33:58.037Z,1.63
2023-05-02T12:36:28.701Z,1.83
2023-05-02T12:39:00.048Z,1.88
2023-05-02T12:41:37.472Z,1.67
2023-05-02T12:44:07.610Z,1.67
2023-05-02T12:46:37.311Z,1.52
2023-05-02T12:49:09.971Z,1.52
2023-05-02T12:51:40.260Z,1.70
2023-05-02T12:54:09.660Z,1.60
2023-05-02T12:56:43.829Z,1.75
2023-05-02T12:59:28.145Z,1.50
2023-05-02T13:01:57.457Z,1.58
2023-05-02T13:04:37.530Z,1.60
2023-05-02T13:07:06.897Z,1.60
2023-05-02T13:09:36.296Z,1.80
2023-05-02T13:12:06.315Z,1.67
2023-05-02T13:14:35.632Z,2.05
2023-05-02T13:17:05.213Z,1.85
2023-05-02T13:19:34.390Z,1.30
2023-05-02T13:22:05.168Z,2.00
2023-05-02T13:24:34.430Z,1.70
2023-05-02T13:27:04.158Z,1.63
2023-05-02T13:29:33.545Z,1.63
2023-05-02T13:32:02.893Z,1.67
2023-05-02T13:34:32.616Z,1.60
2023-05-02T13:37:02.102Z,1.50
2023-05-02T13:39:32.734Z,1.80
2023-05-02T13:42:04.532Z,1.70
2023-05-02T13:44:35.233Z,1.60
2023-05-02T13:47:04.634Z,1.50
2023-05-02T13:49:33.859Z,1.65
2023-05-02T13:52:03.094Z,1.77
2023-05-02T13:54:33.770Z,1.80
2023-05-02T13:57:03.060Z,1.88
2023-05-02T13:59:32.252Z,1.60
2023-05-02T14:02:01.646Z,1.80
2023-05-02T14:04:31.095Z,1.73
2023-05-02T14:07:00.267Z,1.80
2023-05-02T14:09:29.473Z,1.58
2023-05-02T14:12:00.482Z,1.60
2023-05-02T14:14:29.879Z,1.80
2023-05-02T14:16:59.924Z,1.60
2023-05-02T14:19:29.137Z,1.65
2023-05-02T14:21:58.358Z,1.70
2023-05-02T14:24:27.588Z,1.75
2023-05-02T14:26:58.545Z,1.80
2023-05-02T14:29:29.128Z,1.70
2023-05-02T14:31:58.518Z,1.95
2023-05-02T14:34:27.765Z,1.70
2023-05-02T14:36:56.997Z,2.10
2023-05-02T14:39:27.640Z,1.63
2023-05-02T14:41:57.026Z,1.60
2023-05-02T14:44:26.598Z,1.65
2023-05-02T14:46:57.836Z,1.85
2023-05-02T14:49:27.107Z,1.33
2023-05-02T14:51:57.836Z,1.70
2023-05-02T14:54:31.547Z,1.80
2023-05-02T14:57:02.381Z,1.73
2023-05-02T14:59:31.960Z,1.67
2023-05-02T15:02:03.818Z,1.63
2023-05-02T15:04:33.217Z,1.90
2023-05-02T15:07:02.631Z,1.88
2023-05-02T15:09:32.191Z,1.60
2023-05-02T15:12:03.021Z,1.60
2023-05-02T15:14:32.201Z,1.70
2023-05-02T15:17:03.012Z,1.48
2023-05-02T15:19:32.370Z,1.75
2023-05-02T15:22:01.941Z,1.60
2023-05-02T15:24:31.594Z,1.40
2023-05-02T15:27:00.936Z,1.67
2023-05-02T15:29:30.042Z,1.50
2023-05-02T15:31:59.612Z,1.63
2023-05-02T15:34:30.322Z,1.98
2023-05-02T15:37:01.428Z,1.50
2023-05-02T15:39:30.611Z,1.65
2023-05-02T15:42:00.504Z,1.70
2023-05-02T15:44:29.908Z,1.70
2023-05-02T15:47:01.682Z,1.73
2023-05-02T15:49:34.569Z,1.67
2023-05-02T15:52:04.692Z,1.70
2023-05-02T15:54:33.898Z,1.83
2023-05-02T15:57:03.384Z,1.80
2023-05-02T15:59:32.503Z,1.83
2023-05-02T16:02:02.128Z,1.70
2023-05-02T16:04:35.105Z,1.63
2023-05-02T16:07:04.691Z,1.80
2023-05-02T16:09:33.860Z,1.50
2023-05-02T16:12:04.056Z,1.70
2023-05-02T16:14:33.238Z,1.90
2023-05-02T16:17:02.424Z,1.83
2023-05-02T16:19:33.080Z,1.60
2023-05-02T16:22:02.525Z,1.80
2023-05-02T16:24:31.667Z,2.00
2023-05-02T16:27:00.925Z,1.90
2023-05-02T16:29:30.093Z,1.85
2023-05-02T16:31:59.887Z,1.80
2023-05-02T16:34:32.339Z,1.50
2023-05-02T16:37:03.863Z,1.95
2023-05-02T16:39:34.525Z,1.80
2023-05-02T16:42:03.875Z,2.30
2023-05-02T16:44:33.115Z,2.13
2023-05-02T16:47:02.472Z,1.88
2023-05-02T16:49:31.709Z,2.00
2023-05-02T16:52:02.535Z,1.83
2023-05-02T16:54:31.714Z,2.22
2023-05-02T16:57:02.792Z,1.85
2023-05-02T16:59:31.937Z,1.80
2023-05-02T17:02:01.751Z,1.88
2023-05-02T17:04:31.147Z,2.00
2023-05-02T17:07:00.434Z,1.70
2023-05-02T17:09:31.061Z,1.83
2023-05-02T17:12:00.412Z,1.90
2023-05-02T17:14:29.793Z,2.08
2023-05-02T17:16:59.025Z,1.75
2023-05-02T17:19:28.191Z,2.10
2023-05-02T17:21:59.610Z,1.80
2023-05-02T17:24:30.680Z,1.63
2023-05-02T17:27:00.220Z,1.77
2023-05-02T17:29:29.374Z,1.83
2023-05-02T17:32:00.745Z,2.03
2023-05-02T17:34:30.636Z,2.08
2023-05-02T17:36:59.858Z,1.80
2023-05-02T17:39:30.502Z,2.20
2023-05-02T17:41:59.691Z,2.00
2023-05-02T17:44:31.530Z,2.00
2023-05-02T17:47:00.841Z,1.88
2023-05-02T17:49:30.129Z,2.10
2023-05-02T17:51:59.418Z,1.90
2023-05-02T17:54:28.694Z,1.42
2023-05-02T17:56:59.280Z,1.70
2023-05-02T17:59:28.657Z,2.10
2023-05-02T18:01:58.015Z,1.77
2023-05-02T18:04:27.438Z,1.85
2023-05-02T18:06:56.748Z,1.73
2023-05-02T18:09:26.059Z,2.00
2023-05-02T18:11:57.043Z,1.90
2023-05-02T18:14:28.530Z,2.05
2023-05-02T18:16:57.852Z,2.05
2023-05-02T18:19:26.999Z,1.95
2023-05-02T18:21:56.925Z,2.00
2023-05-02T18:24:26.171Z,1.77
2023-05-02T18:26:55.416Z,1.80
2023-05-02T18:29:24.683Z,2.10
2023-05-02T18:31:55.750Z,1.60
2023-05-02T18:34:25.175Z,1.95
2023-05-02T18:36:54.359Z,1.90
2023-05-02T18:39:23.498Z,2.13
2023-05-02T18:41:52.901Z,1.77
2023-05-02T18:44:22.181Z,1.90
2023-05-02T18:46:51.390Z,1.63
2023-05-02T18:49:22.110Z,1.80
2023-05-02T18:51:51.507Z,1.80
2023-05-02T18:54:20.925Z,1.73
2023-05-02T18:56:50.654Z,1.60
2023-05-02T18:59:20.994Z,1.77
2023-05-02T19:01:50.405Z,1.50
2023-05-02T19:04:19.800Z,1.65
2023-05-02T19:06:50.720Z,1.30
2023-05-02T19:09:20.503Z,1.77
2023-05-02T19:11:49.750Z,1.48
2023-05-02T19:14:18.937Z,1.85
2023-05-02T19:16:48.308Z,1.60
2023-05-02T19:19:18.329Z,1.55
2023-05-02T19:21:48.252Z,1.55
2023-05-02T19:24:19.785Z,1.70
2023-05-02T19:26:49.170Z,1.60
2023-05-02T19:29:18.401Z,1.80
2023-05-02T19:31:47.579Z,1.75
2023-05-02T19:34:16.761Z,1.80
2023-05-02T19:36:45.940Z,2.10
2023-05-02T19:39:15.260Z,1.65
2023-05-02T19:41:48.214Z,1.70
2023-05-02T19:44:18.154Z,1.90
2023-05-02T19:46:47.500Z,1.60
2023-05-02T19:49:16.630Z,2.05
2023-05-02T19:51:46.031Z,2.00
2023-05-02T19:54:15.155Z,2.17
2023-05-02T19:56:48.948Z,1.88
2023-05-02T19:59:18.234Z,1.77
2023-05-02T20:01:47.626Z,1.90
2023-05-02T20:04:16.958Z,1.90
2023-05-02T20:06:46.186Z,2.00
2023-05-02T20:09:15.488Z,1.80
2023-05-02T20:11:46.124Z,1.75
2023-05-02T20:14:15.756Z,1.58
2023-05-02T20:16:45.984Z,1.63
2023-05-02T20:19:16.289Z,1.73
2023-05-02T20:21:45.551Z,1.80
2023-05-02T20:24:14.847Z,1.77
2023-05-02T20:26:45.407Z,1.58
2023-05-02T20:29:14.734Z,1.45
2023-05-02T20:31:44.068Z,1.30
2023-05-02T20:34:13.303Z,1.50
2023-05-02T20:36:42.552Z,1.70
2023-05-02T20:39:12.270Z,1.60
2023-05-02T20:41:41.782Z,1.38
2023-05-02T20:44:12.380Z,1.38
2023-05-02T20:46:41.612Z,1.40
2023-05-02T20:49:10.984Z,1.30
2023-05-02T20:51:40.166Z,1.88
2023-05-02T20:54:09.392Z,1.58
2023-05-02T20:56:38.691Z,1.45
2023-05-02T20:59:07.969Z,1.67
2023-05-02T21:01:38.899Z,1.40
2023-05-02T21:04:08.158Z,1.63
2023-05-02T21:06:37.436Z,1.48
2023-05-02T21:09:09.317Z,1.50
2023-05-02T21:11:38.693Z,1.70
2023-05-02T21:14:07.867Z,1.70
2023-05-02T21:16:38.575Z,1.50
2023-05-02T21:19:07.825Z,1.50
2023-05-02T21:21:37.115Z,1.80
2023-05-02T21:24:07.298Z,1.50
2023-05-02T21:26:36.547Z,1.60
2023-05-02T21:29:05.787Z,1.50
2023-05-02T21:31:35.444Z,1.73
2023-05-02T21:34:06.283Z,1.50
2023-05-02T21:36:35.891Z,1.17
2023-05-02T21:39:05.611Z,1.42
2023-05-02T21:41:34.812Z,2.03
2023-05-02T21:44:03.976Z,1.77
2023-05-02T21:46:33.352Z,1.60
2023-05-02T21:49:02.528Z,1.58
2023-05-02T21:51:34.608Z,1.95
2023-05-02T21:54:03.887Z,1.63
2023-05-02T21:56:33.036Z,1.40
2023-05-02T21:59:02.252Z,1.88
2023-05-02T22:01:31.484Z,1.70
2023-05-02T22:04:00.833Z,1.85
2023-05-02T22:06:30.076Z,1.63
2023-05-02T22:09:00.773Z,1.70
2023-05-02T22:11:31.723Z,1.60
2023-05-02T22:14:00.966Z,1.63
2023-05-02T22:16:30.184Z,1.60
2023-05-02T22:18:59.556Z,1.48
2023-05-02T22:21:29.066Z,1.48
2023-05-02T22:23:59.814Z,1.67
2023-05-02T22:26:29.045Z,1.52
2023-05-02T22:28:58.350Z,1.98
2023-05-02T22:31:27.932Z,1.80
2023-05-02T22:33:57.155Z,1.98
2023-05-02T22:36:27.892Z,1.50
2023-05-02T22:38:57.494Z,1.60
2023-05-02T22:41:28.117Z,1.55
2023-05-02T22:43:57.312Z,1.65
2023-05-02T22:46:26.984Z,1.50
2023-05-02T22:48:57.284Z,1.60
2023-05-02T22:51:27.413Z,1.70
2023-05-02T22:53:56.773Z,1.63
2023-05-02T22:56:27.653Z,1.55
2023-05-02T22:58:56.794Z,1.88
2023-05-02T23:01:26.107Z,1.70
2023-05-02T23:03:55.604Z,1.30
2023-05-02T23:06:24.948Z,1.80
2023-05-02T23:08:54.215Z,1.58
2023-05-02T23:11:23.544Z,1.90
2023-05-02T23:13:54.259Z,1.73
2023-05-02T23:16:23.776Z,1.70
2023-05-02T23:18:53.136Z,1.48
2023-05-02T23:21:22.327Z,1.40
2023-05-02T23:23:51.568Z,1.30
2023-05-02T23:26:21.110Z,1.27
2023-05-02T23:28:50.262Z,1.50
2023-05-02T23:31:21.216Z,1.42
2023-05-02T23:33:50.506Z,1.50
2023-05-02T23:36:19.983Z,1.50
2023-05-02T23:38:49.276Z,1.20
2023-05-02T23:41:18.566Z,1.70
2023-05-02T23:43:47.765Z,1.60
2023-05-02T23:46:17.063Z,1.40
2023-05-02T23:48:47.800Z,1.23
2023-05-02T23:51:17.092Z,1.70
2023-05-02T23:53:46.296Z,1.60
2023-05-02T23:56:15.493Z,1.60
2023-05-02T23:58:44.643Z,1.70
